Skip Navigation Links
NOAA logo - Click to go to the NOAA homepage
NOAA's National Weather Service
Alaska Aviation Weather Unit
  NWS logo - Click to go to the NWS homepage
Left Navbar Graphic     03 AKDT = 11 GMT

   
NOAA is celebrating 200 years of science, service, and stewardship. Visit the NOAA 200th celebration Web site to learn more.
USA.gov is the U.S. Government's official Web portal to all Federal, state and local government Web resources and services.
Facebook
NWS on Facebook

AAWU Home :: Display TAF Add Bookmark
TAF PAOR 290520Z 2906/3006 32003KT P6SM VCSH SCT045 BKN100 BKN150=

METAR PAOR 290553Z 00000KT 10SM SCT045 BKN100 BKN150 M08/M12 A2951= METAR PAOR 290653Z 00000KT 10SM FEW045 SCT100 SCT160 M09/M13 A2951= METAR PAOR 290753Z 00000KT 10SM FEW050 BKN150 BKN200 M11/M14 A2951= METAR PAOR 290853Z 00000KT 10SM SCT170 SCT190 BKN200 M11/M14 A2951= METAR PAOR 290953Z 00000KT 10SM SCT150 SCT170 M11/M14 A2951= METAR PAOR 291053Z 00000KT 10SM SCT140 BKN160 M12/M14 A2952 RMK AO2 SLP034 T11171144=
 Alaska TAF Map

NOAA's National Weather Service
Alaska Aviation Weather Unit
6930 Sand Lake Road
Anchorage, AK 99502-1845
Disclaimer
Credits
Glossary
Privacy Policy
About Us
Career Opportunities
Contact AAWU Internet Services Site last modified: April, 17th 2012